createdAt,value
2022-12-15T00:00:37.890Z,0
2022-12-15T00:01:41.050Z,0
2022-12-15T00:03:48.860Z,0
2022-12-15T00:05:54.931Z,0
2022-12-15T00:08:01.292Z,0
2022-12-15T00:09:04.382Z,0
2022-12-15T00:11:10.904Z,0
2022-12-15T00:13:17.257Z,0
2022-12-15T00:15:23.016Z,0
2022-12-15T00:16:26.566Z,0
2022-12-15T00:18:32.348Z,0
2022-12-15T00:20:37.828Z,0
2022-12-15T00:22:43.716Z,0
2022-12-15T00:23:46.822Z,0
2022-12-15T00:25:55.247Z,0
2022-12-15T00:28:01.058Z,0
2022-12-15T00:30:07.135Z,0
2022-12-15T00:31:10.556Z,0
2022-12-15T00:33:16.732Z,0
2022-12-15T00:35:21.758Z,0
2022-12-15T00:37:27.321Z,0
2022-12-15T00:38:30.306Z,0
2022-12-15T00:40:36.535Z,0
2022-12-15T00:42:43.675Z,0
2022-12-15T00:44:49.683Z,0
2022-12-15T00:45:53.013Z,0
2022-12-15T00:47:58.986Z,0
2022-12-15T00:50:06.299Z,0
2022-12-15T00:52:12.157Z,0
2022-12-15T00:53:15.214Z,0
2022-12-15T00:55:23.549Z,0
2022-12-15T00:57:30.294Z,0
2022-12-15T00:59:36.063Z,0
2022-12-15T01:00:39.112Z,0
2022-12-15T01:02:47.531Z,0
2022-12-15T01:04:53.199Z,0
2022-12-15T01:06:58.814Z,0
2022-12-15T01:08:01.641Z,0
2022-12-15T01:10:08.450Z,0
2022-12-15T01:12:14.161Z,0
2022-12-15T01:14:20.972Z,0
2022-12-15T01:15:23.764Z,0
2022-12-15T01:17:30.330Z,0
2022-12-15T01:19:36.790Z,0
2022-12-15T01:21:41.992Z,0
2022-12-15T01:22:45.243Z,0
2022-12-15T01:24:51.272Z,0
2022-12-15T01:26:57.320Z,0
2022-12-15T01:29:04.289Z,0
2022-12-15T01:30:06.719Z,0
2022-12-15T01:32:13.050Z,0
2022-12-15T01:34:18.691Z,0
2022-12-15T01:36:24.780Z,0
2022-12-15T01:37:26.915Z,0
2022-12-15T01:39:33.054Z,0
2022-12-15T01:41:37.893Z,0
2022-12-15T01:42:40.671Z,0
2022-12-15T01:43:43.612Z,0
2022-12-15T01:44:47.781Z,0
2022-12-15T01:46:54.278Z,0
2022-12-15T01:47:57.079Z,0
2022-12-15T01:50:03.097Z,0
2022-12-15T01:51:05.700Z,0
2022-12-15T01:52:08.476Z,0
2022-12-15T01:53:11.563Z,0
2022-12-15T01:55:16.786Z,0
2022-12-15T01:56:19.767Z,0
2022-12-15T01:58:25.516Z,0
2022-12-15T01:59:28.650Z,0
2022-12-15T02:00:32.574Z,0
2022-12-15T02:01:36.687Z,0
2022-12-15T02:03:46.643Z,0
2022-12-15T02:04:49.787Z,0
2022-12-15T02:05:52.864Z,0
2022-12-15T02:06:55.941Z,0
2022-12-15T02:09:01.938Z,0
2022-12-15T02:10:03.612Z,0
2022-12-15T02:11:07.212Z,0
2022-12-15T02:12:09.985Z,0
2022-12-15T02:13:12.560Z,0
2022-12-15T02:15:19.387Z,0
2022-12-15T02:17:26.732Z,0
2022-12-15T02:18:29.426Z,0
2022-12-15T02:20:34.424Z,0
2022-12-15T02:22:40.615Z,0
2022-12-15T02:23:43.321Z,0
2022-12-15T02:24:51.720Z,0
2022-12-15T02:25:54.550Z,0
2022-12-15T02:28:00.863Z,0
2022-12-15T02:29:04.284Z,0
2022-12-15T02:31:11.409Z,0
2022-12-15T02:33:18.116Z,0
2022-12-15T02:34:21.104Z,0
2022-12-15T02:36:27.594Z,0
2022-12-15T02:38:32.998Z,0
2022-12-15T02:39:36.079Z,0
2022-12-15T02:41:41.815Z,0
2022-12-15T02:43:51.820Z,0
2022-12-15T02:44:54.876Z,0
2022-12-15T02:45:58.337Z,0
2022-12-15T02:47:01.769Z,0
2022-12-15T02:49:09.096Z,0
2022-12-15T02:50:12.241Z,0
2022-12-15T02:52:18.050Z,0
2022-12-15T02:53:21.015Z,0
2022-12-15T02:55:27.165Z,0
2022-12-15T02:57:32.518Z,0
2022-12-15T02:58:35.323Z,0
2022-12-15T02:59:38.735Z,0
2022-12-15T03:00:42.421Z,0
2022-12-15T03:01:50.323Z,0
2022-12-15T03:02:55.149Z,0
2022-12-15T03:03:59.640Z,0
2022-12-15T03:05:02.891Z,0
2022-12-15T03:06:06.323Z,0
2022-12-15T03:08:11.512Z,0
2022-12-15T03:09:14.485Z,0
2022-12-15T03:11:20.238Z,0
2022-12-15T03:13:26.165Z,0
2022-12-15T03:15:37.036Z,0
2022-12-15T03:16:40.727Z,0
2022-12-15T03:18:46.069Z,0
2022-12-15T03:20:55.439Z,0
2022-12-15T03:23:01.633Z,0
2022-12-15T03:24:04.075Z,0
2022-12-15T03:25:07.749Z,0
2022-12-15T03:26:10.263Z,0
2022-12-15T03:28:15.759Z,0
2022-12-15T03:29:18.812Z,0
2022-12-15T03:30:21.569Z,0
2022-12-15T03:31:25.776Z,0
2022-12-15T03:33:34.926Z,0
2022-12-15T03:35:41.793Z,0
2022-12-15T03:36:44.485Z,0
2022-12-15T03:38:54.722Z,0
2022-12-15T03:41:01.337Z,0
2022-12-15T03:43:06.208Z,0
2022-12-15T03:44:08.970Z,0
2022-12-15T03:46:15.569Z,0
2022-12-15T03:48:20.881Z,0
2022-12-15T03:50:26.505Z,0
2022-12-15T03:51:30.326Z,0
2022-12-15T03:53:35.875Z,0
2022-12-15T03:55:41.799Z,0
2022-12-15T03:57:47.320Z,0
2022-12-15T03:58:50.181Z,0
2022-12-15T04:00:56.023Z,0
2022-12-15T04:03:03.761Z,0
2022-12-15T04:05:09.893Z,0
2022-12-15T04:06:13.105Z,0
2022-12-15T04:08:19.944Z,0
2022-12-15T04:10:36.347Z,0
2022-12-15T04:12:40.982Z,0
2022-12-15T04:13:43.686Z,0
2022-12-15T04:15:52.439Z,0
2022-12-15T04:17:58.715Z,0
2022-12-15T04:20:04.585Z,0
2022-12-15T04:21:08.226Z,0
2022-12-15T04:22:20.222Z,0
2022-12-15T04:23:23.602Z,0
2022-12-15T04:25:29.288Z,0
2022-12-15T04:27:35.186Z,0
2022-12-15T04:28:37.667Z,0
2022-12-15T04:30:44.107Z,0
2022-12-15T04:32:51.424Z,0
2022-12-15T04:33:54.414Z,0
2022-12-15T04:34:57.518Z,0
2022-12-15T04:36:00.937Z,0
2022-12-15T04:38:06.912Z,0
2022-12-15T04:39:10.538Z,0
2022-12-15T04:40:13.583Z,0
2022-12-15T04:41:16.552Z,0
2022-12-15T04:43:22.957Z,0
2022-12-15T04:44:26.027Z,0
2022-12-15T04:45:28.813Z,0
2022-12-15T04:46:32.511Z,0
2022-12-15T04:48:37.407Z,0
2022-12-15T04:49:39.903Z,0
2022-12-15T04:50:43.079Z,0
2022-12-15T04:51:46.126Z,0
2022-12-15T04:53:53.190Z,0
2022-12-15T04:54:56.726Z,0
2022-12-15T04:55:59.228Z,0
2022-12-15T04:57:02.005Z,0
2022-12-15T04:59:06.150Z,0
2022-12-15T05:00:09.292Z,0
2022-12-15T05:01:12.783Z,0
2022-12-15T05:02:16.615Z,0
2022-12-15T05:04:24.097Z,0
2022-12-15T05:05:26.587Z,0
2022-12-15T05:06:29.289Z,0
2022-12-15T05:07:32.066Z,0
2022-12-15T05:09:38.934Z,0
2022-12-15T05:10:42.288Z,0
2022-12-15T05:11:45.329Z,0
2022-12-15T05:12:49.042Z,0
2022-12-15T05:14:54.306Z,0
2022-12-15T05:15:57.549Z,0
2022-12-15T05:17:01.368Z,0
2022-12-15T05:18:03.795Z,0
2022-12-15T05:20:08.642Z,0
2022-12-15T05:21:12.272Z,0
2022-12-15T05:22:15.651Z,0
2022-12-15T05:23:18.729Z,0
2022-12-15T05:25:25.374Z,0
2022-12-15T05:27:30.675Z,0
2022-12-15T05:28:33.730Z,0
2022-12-15T05:30:40.292Z,0
2022-12-15T05:32:50.585Z,0
2022-12-15T05:34:56.275Z,0
2022-12-15T05:35:59.256Z,0
2022-12-15T05:38:04.577Z,0
2022-12-15T05:40:10.323Z,0
2022-12-15T05:42:17.622Z,0
2022-12-15T05:43:30.385Z,0
2022-12-15T05:44:34.448Z,0
2022-12-15T05:45:37.142Z,0
2022-12-15T05:47:43.870Z,0
2022-12-15T05:48:46.907Z,0
2022-12-15T05:49:50.225Z,0
2022-12-15T05:50:53.275Z,0
2022-12-15T05:52:58.883Z,0
2022-12-15T05:54:02.138Z,0
2022-12-15T05:55:05.124Z,0
2022-12-15T05:56:07.917Z,0
2022-12-15T05:58:15.240Z,0
2022-12-15T05:59:17.750Z,0
2022-12-15T06:00:20.787Z,0
2022-12-15T06:01:23.655Z,0
2022-12-15T06:03:32.840Z,0
2022-12-15T06:05:39.982Z,0
2022-12-15T06:06:43.174Z,0
2022-12-15T06:08:51.975Z,0
2022-12-15T06:10:58.736Z,0
2022-12-15T06:13:05.088Z,0
2022-12-15T06:14:08.701Z,0
2022-12-15T06:16:15.481Z,0
2022-12-15T06:18:20.411Z,0
2022-12-15T06:20:26.880Z,0
2022-12-15T06:21:29.753Z,0
2022-12-15T06:23:36.461Z,0
2022-12-15T06:25:42.016Z,0
2022-12-15T06:27:48.045Z,0
2022-12-15T06:28:52.248Z,0
2022-12-15T06:30:58.652Z,0
2022-12-15T06:33:05.228Z,0
2022-12-15T06:35:11.715Z,0
2022-12-15T06:36:14.714Z,0
2022-12-15T06:38:20.196Z,0
2022-12-15T06:40:25.392Z,0
2022-12-15T06:41:28.116Z,0
2022-12-15T06:42:30.620Z,0
2022-12-15T06:43:35.758Z,0
2022-12-15T06:45:43.386Z,0
2022-12-15T06:48:03.868Z,0
2022-12-15T06:49:06.913Z,0
2022-12-15T06:50:09.335Z,0
2022-12-15T06:51:18.789Z,0
2022-12-15T06:52:21.486Z,0
2022-12-15T06:53:24.846Z,0
2022-12-15T06:55:30.691Z,0
2022-12-15T06:56:36.598Z,0
2022-12-15T06:58:42.793Z,0
2022-12-15T07:00:50.036Z,0
2022-12-15T07:02:57.968Z,0
2022-12-15T07:04:03.539Z,0
2022-12-15T07:06:10.040Z,1
2022-12-15T07:08:16.019Z,1
2022-12-15T07:10:21.898Z,1
2022-12-15T07:11:25.233Z,1
2022-12-15T07:13:34.782Z,2
2022-12-15T07:15:42.041Z,2
2022-12-15T07:17:49.007Z,3
2022-12-15T07:18:51.973Z,3
2022-12-15T07:19:54.211Z,3
2022-12-15T07:20:56.710Z,3
2022-12-15T07:23:02.270Z,4
2022-12-15T07:24:09.178Z,4
2022-12-15T07:25:12.361Z,4
2022-12-15T07:26:14.584Z,5
2022-12-15T07:28:31.528Z,5
2022-12-15T07:30:41.436Z,6
2022-12-15T07:31:45.531Z,7
2022-12-15T07:33:55.585Z,7
2022-12-15T07:36:01.022Z,8
2022-12-15T07:38:07.055Z,9
2022-12-15T07:39:10.723Z,10
2022-12-15T07:41:16.687Z,11
2022-12-15T07:43:21.970Z,12
2022-12-15T07:45:27.809Z,13
2022-12-15T07:46:32.488Z,14
2022-12-15T07:48:39.801Z,15
2022-12-15T07:50:51.307Z,17
2022-12-15T07:52:57.151Z,18
2022-12-15T07:54:00.203Z,18
2022-12-15T07:55:03.811Z,19
2022-12-15T07:56:11.515Z,19
2022-12-15T07:58:16.801Z,21
2022-12-15T08:00:23.132Z,25
2022-12-15T08:01:27.053Z,24
2022-12-15T08:03:41.216Z,26
2022-12-15T08:04:44.820Z,25
2022-12-15T08:05:48.153Z,26
2022-12-15T08:07:55.006Z,28
2022-12-15T08:10:00.453Z,35
2022-12-15T08:11:04.170Z,43
2022-12-15T08:13:10.500Z,54
2022-12-15T08:14:22.492Z,55
2022-12-15T08:15:25.423Z,58
2022-12-15T08:16:29.564Z,62
2022-12-15T08:18:35.990Z,67
2022-12-15T08:20:43.437Z,73
2022-12-15T08:22:49.614Z,78
2022-12-15T08:23:52.394Z,81
2022-12-15T08:24:56.134Z,85
2022-12-15T08:25:59.479Z,89
2022-12-15T08:28:04.841Z,97
2022-12-15T08:29:54.065Z,97
2022-12-15T08:30:57.360Z,99
2022-12-15T08:32:01.335Z,105
2022-12-15T08:33:04.760Z,104
2022-12-15T08:34:07.336Z,105
2022-12-15T08:35:59.033Z,109
2022-12-15T08:37:02.962Z,107
2022-12-15T08:39:11.178Z,122
2022-12-15T08:41:17.397Z,168
2022-12-15T08:43:23.313Z,147
2022-12-15T08:44:26.098Z,133
2022-12-15T08:46:32.994Z,134
2022-12-15T08:48:39.399Z,152
2022-12-15T08:50:45.900Z,157
2022-12-15T08:51:52.684Z,149
2022-12-15T08:53:33.890Z,139
2022-12-15T08:55:39.297Z,154
2022-12-15T08:56:41.717Z,160
2022-12-15T08:58:48.364Z,168
2022-12-15T09:00:55.259Z,149
2022-12-15T09:03:02.686Z,131
2022-12-15T09:04:05.720Z,140
2022-12-15T09:05:09.104Z,126
2022-12-15T09:06:12.786Z,116
2022-12-15T09:08:20.505Z,163
2022-12-15T09:09:24.232Z,186
2022-12-15T09:10:27.056Z,190
2022-12-15T09:11:30.762Z,209
2022-12-15T09:13:38.185Z,216
2022-12-15T09:16:13.312Z,241
2022-12-15T09:18:20.802Z,320
2022-12-15T09:19:23.580Z,308
2022-12-15T09:21:30.778Z,266
2022-12-15T09:23:39.177Z,324
2022-12-15T09:25:45.268Z,399
2022-12-15T09:26:47.751Z,322
2022-12-15T09:28:54.483Z,352
2022-12-15T09:31:00.786Z,294
2022-12-15T09:32:14.780Z,267
2022-12-15T09:33:18.412Z,242
2022-12-15T09:34:21.470Z,260
2022-12-15T09:35:23.978Z,295
2022-12-15T09:36:26.948Z,355
2022-12-15T09:38:34.487Z,453
2022-12-15T09:40:40.814Z,461
2022-12-15T09:41:44.144Z,465
2022-12-15T09:43:48.111Z,474
2022-12-15T09:44:52.967Z,459
2022-12-15T09:45:57.060Z,484
2022-12-15T09:47:00.426Z,455
2022-12-15T09:49:06.827Z,483
2022-12-15T09:51:13.876Z,497
2022-12-15T09:52:16.876Z,500
2022-12-15T09:54:00.664Z,516
2022-12-15T09:55:05.968Z,500
2022-12-15T09:56:08.777Z,510
2022-12-15T09:57:12.387Z,509
2022-12-15T09:59:17.658Z,512
2022-12-15T10:00:20.972Z,531
2022-12-15T10:02:29.116Z,541
2022-12-15T10:04:39.955Z,536
2022-12-15T15:03:26.617Z,560
2022-12-15T15:04:30.333Z,0
2022-12-15T15:05:33.302Z,0
2022-12-15T15:07:39.863Z,0
2022-12-15T15:09:45.885Z,0
2022-12-15T15:10:50.353Z,0
2022-12-15T15:12:56.889Z,0
2022-12-15T15:15:03.762Z,0
2022-12-15T15:16:07.005Z,0
2022-12-15T15:17:10.539Z,0
2022-12-15T15:18:14.585Z,0
2022-12-15T15:20:21.948Z,0
2022-12-15T15:21:24.933Z,0
2022-12-15T15:23:30.908Z,0
2022-12-15T15:25:43.116Z,0
2022-12-15T15:26:46.145Z,0
2022-12-15T15:27:49.136Z,0
2022-12-15T15:28:52.119Z,0
2022-12-15T15:29:55.477Z,0
2022-12-15T15:30:59.068Z,0
2022-12-15T15:33:05.218Z,0
2022-12-15T15:34:08.845Z,0
2022-12-15T15:35:12.291Z,0
2022-12-15T15:36:16.118Z,0
2022-12-15T15:38:23.239Z,0
2022-12-15T15:39:26.319Z,0
2022-12-15T15:40:29.174Z,0
2022-12-15T15:41:32.430Z,0
2022-12-15T15:43:38.434Z,0
2022-12-15T15:45:45.457Z,0
2022-12-15T15:46:48.021Z,0
2022-12-15T15:47:57.595Z,0
2022-12-15T15:49:01.261Z,0
2022-12-15T15:51:08.027Z,0
2022-12-15T15:52:11.849Z,0
2022-12-15T15:54:18.299Z,0
2022-12-15T15:56:24.399Z,0
2022-12-15T15:58:33.622Z,0
2022-12-15T15:59:37.260Z,0
2022-12-15T16:01:44.730Z,0
2022-12-15T16:03:52.528Z,0
2022-12-15T16:05:59.348Z,0
2022-12-15T16:07:02.773Z,0
2022-12-15T16:09:10.059Z,0
2022-12-15T16:11:16.646Z,0
2022-12-15T16:12:20.345Z,0
2022-12-15T16:13:28.628Z,0
2022-12-15T16:14:31.741Z,0
2022-12-15T16:16:38.682Z,0
2022-12-15T16:18:45.444Z,0
2022-12-15T16:19:47.876Z,0
2022-12-15T16:21:53.512Z,0
2022-12-15T16:24:00.840Z,0
2022-12-15T16:26:06.664Z,0
2022-12-15T16:27:09.716Z,0
2022-12-15T16:29:15.661Z,0
2022-12-15T16:31:23.025Z,0
2022-12-15T16:33:29.519Z,0
2022-12-15T16:34:32.874Z,0
2022-12-15T16:36:38.740Z,0
2022-12-15T16:38:45.121Z,0
2022-12-15T16:39:48.612Z,0
2022-12-15T16:40:55.736Z,0
2022-12-15T16:41:59.072Z,0
2022-12-15T16:44:05.260Z,0
2022-12-15T16:45:08.115Z,0
2022-12-15T16:47:14.467Z,0
2022-12-15T16:49:22.107Z,0
2022-12-15T16:51:27.383Z,0
2022-12-15T16:52:30.743Z,0
2022-12-15T16:54:36.971Z,0
2022-12-15T16:56:45.081Z,0
2022-12-15T16:57:48.167Z,0
2022-12-15T16:59:36.927Z,0
2022-12-15T17:01:44.636Z,0
2022-12-15T17:02:49.147Z,0
2022-12-15T17:04:56.505Z,0
2022-12-15T17:07:03.093Z,0
2022-12-15T17:09:08.996Z,0
2022-12-15T17:10:12.449Z,0
2022-12-15T17:12:19.271Z,0
2022-12-15T17:13:21.686Z,0
2022-12-15T17:14:25.024Z,0
2022-12-15T17:15:28.680Z,0
2022-12-15T17:17:36.031Z,0
2022-12-15T17:20:32.769Z,0
2022-12-15T17:22:40.244Z,0
2022-12-15T17:23:43.633Z,0
2022-12-15T17:24:46.581Z,0
2022-12-15T17:26:32.223Z,0
2022-12-15T17:27:36.269Z,0
2022-12-15T17:28:39.419Z,0
2022-12-15T17:30:46.241Z,0
2022-12-15T17:31:49.792Z,0
2022-12-15T17:32:52.323Z,0
2022-12-15T17:33:55.581Z,0
2022-12-15T17:36:01.155Z,0
2022-12-15T17:37:04.197Z,0
2022-12-15T17:38:08.290Z,0
2022-12-15T17:39:11.908Z,0
2022-12-15T17:42:04.429Z,0
2022-12-15T17:44:40.210Z,0
2022-12-15T17:45:43.603Z,0
2022-12-15T17:46:47.146Z,0
2022-12-15T17:48:53.882Z,0
2022-12-15T17:51:00.346Z,0
2022-12-15T17:52:03.717Z,0
2022-12-15T17:54:09.597Z,0
2022-12-15T17:56:15.084Z,0
2022-12-15T17:57:17.606Z,0
2022-12-15T17:58:21.115Z,0
2022-12-15T17:59:24.189Z,0
2022-12-15T18:00:27.225Z,0
2022-12-15T18:01:30.838Z,0
2022-12-15T18:02:35.763Z,0
2022-12-15T18:04:44.392Z,0
2022-12-15T18:05:47.438Z,0
2022-12-15T18:06:50.406Z,0
2022-12-15T18:07:53.465Z,0
2022-12-15T18:09:59.028Z,0
2022-12-15T18:11:01.738Z,0
2022-12-15T18:12:05.084Z,0
2022-12-15T18:13:07.903Z,0
2022-12-15T18:15:14.181Z,0
2022-12-15T18:17:20.832Z,0
2022-12-15T18:18:24.452Z,0
2022-12-15T18:19:36.647Z,0
2022-12-15T18:20:39.984Z,0
2022-12-15T18:22:45.943Z,0
2022-12-15T18:24:51.925Z,0
2022-12-15T18:26:04.912Z,0
2022-12-15T18:28:11.198Z,0
2022-12-15T18:30:18.081Z,0
2022-12-15T18:31:20.996Z,0
2022-12-15T18:32:24.159Z,0
2022-12-15T18:33:27.004Z,0
2022-12-15T18:35:32.607Z,0
2022-12-15T18:36:35.204Z,0
2022-12-15T18:37:38.354Z,0
2022-12-15T18:38:42.066Z,0
2022-12-15T18:40:47.974Z,0
2022-12-15T18:41:51.128Z,0
2022-12-15T18:42:54.271Z,0
2022-12-15T18:43:57.253Z,0
2022-12-15T18:46:03.407Z,0
2022-12-15T18:47:08.435Z,0
2022-12-15T18:49:14.869Z,0
2022-12-15T18:51:21.750Z,0
2022-12-15T18:52:35.138Z,0
2022-12-15T18:53:38.417Z,0
2022-12-15T18:54:41.474Z,0
2022-12-15T18:56:46.335Z,0
2022-12-15T18:58:52.294Z,0
2022-12-15T18:59:55.677Z,0
2022-12-15T19:00:59.796Z,0
2022-12-15T19:02:03.822Z,0
2022-12-15T19:04:11.473Z,0
2022-12-15T19:06:17.338Z,0
2022-12-15T19:08:23.442Z,0
2022-12-15T19:09:26.775Z,0
2022-12-15T19:11:32.968Z,0
2022-12-15T19:13:39.093Z,0
2022-12-15T19:14:41.968Z,0
2022-12-15T19:15:46.280Z,0
2022-12-15T19:16:50.581Z,0
2022-12-15T19:18:55.318Z,0
2022-12-15T19:20:59.988Z,0
2022-12-15T19:22:02.970Z,0
2022-12-15T19:24:08.752Z,0
2022-12-15T19:26:14.034Z,0
2022-12-15T19:27:17.787Z,0
2022-12-15T19:28:21.487Z,0
2022-12-15T19:29:24.745Z,0
2022-12-15T19:31:31.996Z,0
2022-12-15T19:32:35.535Z,0
2022-12-15T19:34:41.353Z,0
2022-12-15T19:36:46.904Z,0
2022-12-15T19:38:52.261Z,0
2022-12-15T19:39:55.328Z,0
2022-12-15T19:42:01.328Z,0
2022-12-15T19:44:06.995Z,0
2022-12-15T19:45:10.439Z,0
2022-12-15T19:46:13.810Z,0
2022-12-15T19:47:16.912Z,0
2022-12-15T19:48:26.154Z,0
2022-12-15T19:49:28.850Z,0
2022-12-15T19:50:32.101Z,0
2022-12-15T19:51:35.354Z,0
2022-12-15T19:52:39.004Z,0
2022-12-15T19:54:45.136Z,0
2022-12-15T19:55:48.248Z,0
2022-12-15T19:56:50.391Z,0
2022-12-15T19:57:52.406Z,0
2022-12-15T19:59:57.529Z,0
2022-12-15T20:01:00.781Z,0
2022-12-15T20:03:10.200Z,0
2022-12-15T20:05:17.124Z,0
2022-12-15T20:06:20.166Z,0
2022-12-15T20:07:23.008Z,0
2022-12-15T20:08:25.601Z,0
2022-12-15T20:10:34.668Z,0
2022-12-15T20:11:37.745Z,0
2022-12-15T20:12:40.344Z,0
2022-12-15T20:13:43.400Z,0
2022-12-15T20:15:48.395Z,0
2022-12-15T20:16:52.021Z,0
2022-12-15T20:17:57.167Z,0
2022-12-15T20:19:00.360Z,0
2022-12-15T20:21:06.411Z,0
2022-12-15T20:22:09.528Z,0
2022-12-15T20:23:13.217Z,0
2022-12-15T20:24:16.353Z,0
2022-12-15T20:26:22.112Z,0
2022-12-15T20:27:24.808Z,0
2022-12-15T20:28:28.174Z,0
2022-12-15T20:29:31.046Z,0
2022-12-15T20:31:38.853Z,0
2022-12-15T20:32:41.931Z,0
2022-12-15T20:33:45.675Z,0
2022-12-15T20:34:48.491Z,0
2022-12-15T20:36:55.833Z,0
2022-12-15T20:37:58.881Z,0
2022-12-15T20:40:04.793Z,0
2022-12-15T20:42:10.054Z,0
2022-12-15T20:43:12.749Z,0
2022-12-15T20:45:19.418Z,0
2022-12-15T20:47:26.277Z,0
2022-12-15T20:49:31.499Z,0
2022-12-15T20:50:35.588Z,0
2022-12-15T20:52:42.424Z,0
2022-12-15T20:54:47.978Z,0
2022-12-15T20:56:53.285Z,0
2022-12-15T20:57:55.767Z,0
2022-12-15T21:00:02.442Z,0
2022-12-15T21:02:10.292Z,0
2022-12-15T21:03:14.401Z,0
2022-12-15T21:05:20.631Z,0
2022-12-15T21:07:27.325Z,0
2022-12-15T21:09:33.565Z,0
2022-12-15T21:10:36.641Z,0
2022-12-15T21:12:42.825Z,0
2022-12-15T21:14:48.687Z,0
2022-12-15T21:15:51.459Z,0
2022-12-15T21:19:24.482Z,0
2022-12-15T21:20:29.230Z,0
2022-12-15T21:21:32.986Z,0
2022-12-15T21:23:44.754Z,0
2022-12-15T21:24:48.004Z,0
2022-12-15T21:25:52.173Z,0
2022-12-15T21:28:00.421Z,0
2022-12-15T21:29:03.107Z,0
2022-12-15T21:31:09.697Z,0
2022-12-15T21:33:15.293Z,0
2022-12-15T21:35:21.506Z,0
2022-12-15T21:36:24.951Z,0
2022-12-15T21:38:35.253Z,0
2022-12-15T21:40:41.487Z,0
2022-12-15T21:41:44.236Z,0
2022-12-15T21:42:47.375Z,0
2022-12-15T21:43:49.877Z,0
2022-12-15T21:45:58.580Z,0
2022-12-15T21:48:04.856Z,0
2022-12-15T21:49:08.593Z,0
2022-12-15T21:50:11.568Z,0
2022-12-15T21:51:14.550Z,0
2022-12-15T21:53:19.774Z,0
2022-12-15T21:54:32.697Z,0
2022-12-15T21:55:35.397Z,0
2022-12-15T21:56:38.650Z,0
2022-12-15T21:58:44.532Z,0
2022-12-15T22:00:51.645Z,0
2022-12-15T22:01:57.254Z,0
2022-12-15T22:03:01.454Z,0
2022-12-15T22:04:04.850Z,0
2022-12-15T22:06:11.833Z,0
2022-12-15T22:07:14.888Z,0
2022-12-15T22:08:18.001Z,0
2022-12-15T22:09:21.013Z,0
2022-12-15T22:11:28.262Z,0
2022-12-15T22:13:34.248Z,0
2022-12-15T22:14:37.481Z,0
2022-12-15T22:16:43.876Z,0
2022-12-15T22:18:50.145Z,0
2022-12-15T22:20:58.591Z,0
2022-12-15T22:22:01.935Z,0
2022-12-15T22:24:08.930Z,0
2022-12-15T22:26:16.882Z,0
2022-12-15T22:27:20.221Z,0
2022-12-15T22:28:23.016Z,0
2022-12-15T22:29:25.986Z,0
2022-12-15T22:31:31.260Z,0
2022-12-15T22:32:34.531Z,0
2022-12-15T22:34:39.891Z,0
2022-12-15T22:36:45.959Z,0
2022-12-15T22:38:51.704Z,0
2022-12-15T22:39:56.843Z,0
2022-12-15T22:42:03.526Z,0
2022-12-15T22:44:09.892Z,0
2022-12-15T22:45:12.943Z,0
2022-12-15T22:47:18.590Z,0
2022-12-15T22:49:24.510Z,0
2022-12-15T22:51:30.522Z,0
2022-12-15T22:52:32.814Z,0
2022-12-15T22:54:46.851Z,0
2022-12-15T22:56:55.300Z,0
2022-12-15T22:57:59.042Z,0
2022-12-15T22:59:02.367Z,0
2022-12-15T23:00:05.170Z,0
2022-12-15T23:02:11.866Z,0
2022-12-15T23:04:17.620Z,0
2022-12-15T23:05:20.391Z,0
2022-12-15T23:07:25.775Z,0
2022-12-15T23:09:32.009Z,0
2022-12-15T23:10:35.441Z,0
2022-12-15T23:11:38.844Z,0
2022-12-15T23:12:41.967Z,0
2022-12-15T23:14:47.760Z,0
2022-12-15T23:16:57.793Z,0
2022-12-15T23:18:00.945Z,0
2022-12-15T23:20:08.620Z,0
2022-12-15T23:22:14.833Z,0
2022-12-15T23:24:19.620Z,0
2022-12-15T23:25:22.879Z,0
2022-12-15T23:27:28.471Z,0
2022-12-15T23:29:34.652Z,0
2022-12-15T23:31:40.189Z,0
2022-12-15T23:32:42.430Z,0
2022-12-15T23:34:48.456Z,0
2022-12-15T23:36:57.848Z,0
2022-12-15T23:39:03.446Z,0
2022-12-15T23:40:05.340Z,0
2022-12-15T23:42:11.483Z,0
2022-12-15T23:44:17.857Z,0
2022-12-15T23:46:24.184Z,0
2022-12-15T23:47:26.971Z,0
2022-12-15T23:49:32.467Z,0
2022-12-15T23:51:37.151Z,0
2022-12-15T23:53:43.092Z,0
2022-12-15T23:54:46.690Z,0
2022-12-15T23:56:55.979Z,0
2022-12-15T23:59:01.189Z,0
